createdAt,value
2023-01-03T00:01:29.184Z,100217.91
2023-01-03T00:03:02.326Z,100222.25
2023-01-03T00:04:35.614Z,100204.88
2023-01-03T00:06:15.697Z,100213.53
2023-01-03T00:07:51.553Z,100211.84
2023-01-03T00:09:25.734Z,100210.94
2023-01-03T00:10:57.998Z,100208.25
2023-01-03T00:12:32.351Z,100208.25
2023-01-03T00:14:04.738Z,100211.66
2023-01-03T00:15:38.699Z,100209.84
2023-01-03T00:17:13.668Z,100215.84
2023-01-03T00:18:47.519Z,100219.28
2023-01-03T00:20:20.984Z,100216.66
2023-01-03T00:21:53.568Z,100204.38
2023-01-03T00:23:28.204Z,100213.13
2023-01-03T00:25:01.434Z,100211.38
2023-01-03T00:26:34.438Z,100209.66
2023-01-03T00:28:07.771Z,100213.16
2023-01-03T00:29:40.987Z,100214.91
2023-01-03T00:31:14.409Z,100214.88
2023-01-03T00:32:47.971Z,100216.59
2023-01-03T00:34:20.168Z,100218.34
2023-01-03T00:35:53.350Z,100216.59
2023-01-03T00:37:26.515Z,100223.56
2023-01-03T00:39:00.651Z,100217.50
2023-01-03T00:40:33.937Z,100214.88
2023-01-03T00:42:08.326Z,100215.75
2023-01-03T00:43:41.694Z,100215.78
2023-01-03T00:45:19.225Z,100217.50
2023-01-03T00:46:53.047Z,100223.50
2023-01-03T00:48:25.553Z,100220.03
2023-01-03T00:49:58.669Z,100212.09
2023-01-03T00:51:34.676Z,100221.56
2023-01-03T00:53:07.798Z,100212.88
2023-01-03T00:54:42.451Z,100216.31
2023-01-03T00:56:18.179Z,100217.13
2023-01-03T00:57:51.568Z,100212.75
2023-01-03T00:59:24.719Z,100217.19
2023-01-03T01:00:56.933Z,100216.34
2023-01-03T01:02:30.352Z,100221.56
2023-01-03T01:04:07.058Z,100214.53
2023-01-03T01:05:40.244Z,100207.63
2023-01-03T01:07:13.588Z,100204.09
2023-01-03T01:08:47.555Z,100184.88
2023-01-03T01:10:22.530Z,100205.78
2023-01-03T01:11:56.214Z,100204.16
2023-01-03T01:13:30.110Z,100205.94
2023-01-03T01:15:03.378Z,100208.47
2023-01-03T01:16:35.896Z,100209.28
2023-01-03T01:18:09.195Z,100203.16
2023-01-03T01:19:44.981Z,100209.19
2023-01-03T01:21:24.200Z,100207.47
2023-01-03T01:22:57.702Z,100206.56
2023-01-03T01:24:31.200Z,100205.66
2023-01-03T01:26:10.080Z,100206.56
2023-01-03T01:27:43.296Z,100201.31
2023-01-03T01:29:16.744Z,100199.53
2023-01-03T01:30:49.898Z,100202.94
2023-01-03T01:32:23.116Z,100198.56
2023-01-03T01:33:57.840Z,100193.31
2023-01-03T01:35:31.330Z,100195.16
2023-01-03T01:37:04.931Z,100195.19
2023-01-03T01:38:37.367Z,100196.94
2023-01-03T01:40:11.816Z,100196.09
2023-01-03T01:42:05.739Z,100205.63
2023-01-03T01:44:14.397Z,100198.63
2023-01-03T01:45:48.423Z,100195.19
2023-01-03T01:47:28.021Z,100195.19
2023-01-03T01:49:04.194Z,100192.63
2023-01-03T01:50:43.319Z,100196.06
2023-01-03T01:52:18.344Z,100205.63
2023-01-03T01:53:55.584Z,100194.38
2023-01-03T01:55:32.913Z,100189.09
2023-01-03T01:57:13.690Z,100189.88
2023-01-03T01:58:50.157Z,100192.38
2023-01-03T02:00:22.674Z,100189.66
2023-01-03T02:01:56.411Z,100183.66
2023-01-03T02:03:31.816Z,100176.59
2023-01-03T02:05:07.528Z,100172.28
2023-01-03T02:06:41.807Z,100187.97
2023-01-03T02:08:15.098Z,100185.44
2023-01-03T02:09:49.894Z,100187.16
2023-01-03T02:11:34.867Z,100188.91
2023-01-03T02:13:13.972Z,100185.47
2023-01-03T02:15:05.528Z,100182.88
2023-01-03T02:16:52.971Z,100180.28
2023-01-03T02:18:42.946Z,100185.53
2023-01-03T02:20:26.986Z,100178.63
2023-01-03T02:22:28.649Z,100173.31
2023-01-03T02:24:31.811Z,100185.47
2023-01-03T02:26:43.164Z,100177.63
2023-01-03T02:28:57.696Z,100181.03
2023-01-03T02:30:38.062Z,100168.78
2023-01-03T02:32:14.790Z,100181.78
2023-01-03T02:33:55.558Z,100180.88
2023-01-03T02:35:36.777Z,100176.50
2023-01-03T02:37:18.899Z,100177.28
2023-01-03T02:38:58.253Z,100176.44
2023-01-03T02:40:38.324Z,100191.16
2023-01-03T02:42:34.552Z,100176.38
2023-01-03T02:44:17.104Z,100176.34
2023-01-03T02:46:07.719Z,100175.47
2023-01-03T02:47:47.925Z,100174.59
2023-01-03T02:49:27.430Z,100178.09
2023-01-03T02:51:03.668Z,100173.72
2023-01-03T02:52:38.305Z,100179.84
2023-01-03T02:54:16.770Z,100177.19
2023-01-03T02:55:53.684Z,100173.66
2023-01-03T02:57:31.423Z,100175.31
2023-01-03T02:59:09.970Z,100175.31
2023-01-03T03:00:48.933Z,100177.06
2023-01-03T03:02:26.264Z,100179.69
2023-01-03T03:04:02.535Z,100178.84
2023-01-03T03:05:40.582Z,100170.19
2023-01-03T03:07:19.853Z,100178.06
2023-01-03T03:08:53.543Z,100180.66
2023-01-03T03:10:45.447Z,100187.59
2023-01-03T03:12:36.601Z,100179.78
2023-01-03T03:14:15.408Z,100171.97
2023-01-03T03:15:55.460Z,100170.25
2023-01-03T03:17:32.869Z,100175.44
2023-01-03T03:19:40.197Z,100180.66
2023-01-03T03:21:33.348Z,100171.06
2023-01-03T03:23:27.807Z,100172.88
2023-01-03T03:25:05.731Z,100167.56
2023-01-03T03:26:44.033Z,100168.38
2023-01-03T03:28:37.845Z,100166.59
2023-01-03T03:30:15.587Z,100163.91
2023-01-03T03:31:51.305Z,100169.06
2023-01-03T03:33:29.045Z,100171.66
2023-01-03T03:35:05.800Z,100171.56
2023-01-03T03:36:45.422Z,100180.31
2023-01-03T03:38:23.241Z,100169.81
2023-01-03T03:40:14.531Z,100175.03
2023-01-03T03:42:07.750Z,100172.25
2023-01-03T03:44:05.013Z,100174.59
2023-01-03T03:45:43.762Z,100176.22
2023-01-03T03:47:25.508Z,100172.75
2023-01-03T03:49:24.555Z,100167.59
2023-01-03T03:51:03.301Z,100177.28
2023-01-03T03:52:37.956Z,100173.88
2023-01-03T03:54:14.549Z,100178.25
2023-01-03T03:55:53.861Z,100171.31
2023-01-03T03:57:30.121Z,100174.72
2023-01-03T03:59:07.886Z,100171.19
2023-01-03T04:00:44.019Z,100167.75
2023-01-03T04:02:19.145Z,100167.75
2023-01-03T04:03:56.047Z,100168.72
2023-01-03T04:05:35.752Z,100156.47
2023-01-03T04:07:09.699Z,100162.56
2023-01-03T04:08:43.828Z,100166.13
2023-01-03T04:10:20.618Z,100165.28
2023-01-03T04:11:53.823Z,100174.00
2023-01-03T04:13:26.170Z,100172.25
2023-01-03T04:14:59.403Z,100173.09
2023-01-03T04:16:31.840Z,100173.09
2023-01-03T04:18:05.419Z,100177.41
2023-01-03T04:19:37.767Z,100175.69
2023-01-03T04:21:17.174Z,100169.59
2023-01-03T04:22:54.241Z,100158.34
2023-01-03T04:24:26.892Z,100166.25
2023-01-03T04:26:00.478Z,100162.81
2023-01-03T04:27:33.995Z,100161.88
2023-01-03T04:29:07.406Z,100169.75
2023-01-03T04:30:40.741Z,100175.75
2023-01-03T04:32:34.213Z,100178.97
2023-01-03T04:34:07.468Z,100181.31
2023-01-03T04:35:41.003Z,100175.00
2023-01-03T04:37:16.221Z,100165.31
2023-01-03T04:38:49.718Z,100177.25
2023-01-03T04:40:21.907Z,100180.59
2023-01-03T04:41:55.270Z,100176.19
2023-01-03T04:43:46.204Z,100181.50
2023-01-03T04:45:18.474Z,100179.81
2023-01-03T04:46:53.229Z,100185.97
2023-01-03T04:48:25.855Z,100169.53
2023-01-03T04:49:59.171Z,100173.91
2023-01-03T04:51:32.371Z,100179.31
2023-01-03T04:53:07.685Z,100184.50
2023-01-03T04:54:41.157Z,100178.53
2023-01-03T04:56:14.520Z,100186.31
2023-01-03T04:57:47.636Z,100179.34
2023-01-03T04:59:20.731Z,100184.50
2023-01-03T05:00:59.349Z,100179.31
2023-01-03T05:02:32.719Z,100179.19
2023-01-03T05:04:06.193Z,100185.31
2023-01-03T05:05:38.794Z,100186.13
2023-01-03T05:07:12.291Z,100186.09
2023-01-03T05:08:47.881Z,100186.13
2023-01-03T05:10:20.949Z,100187.91
2023-01-03T05:11:54.130Z,100182.56
2023-01-03T05:13:27.374Z,100187.91
2023-01-03T05:15:00.576Z,100185.28
2023-01-03T05:16:33.760Z,100199.97
2023-01-03T05:18:06.269Z,100190.41
2023-01-03T05:20:00.358Z,100191.22
2023-01-03T05:21:47.488Z,100191.22
2023-01-03T05:23:38.205Z,100182.63
2023-01-03T05:25:30.471Z,100188.72
2023-01-03T05:27:06.737Z,100194.84
2023-01-03T05:28:40.438Z,100196.66
2023-01-03T05:30:14.240Z,100194.84
2023-01-03T05:31:48.015Z,100212.19
2023-01-03T05:33:21.349Z,100194.69
2023-01-03T05:34:54.647Z,100204.19
2023-01-03T05:36:28.277Z,100206.69
2023-01-03T05:38:01.409Z,100204.13
2023-01-03T05:39:34.657Z,100209.31
2023-01-03T05:41:09.683Z,100209.22
2023-01-03T05:42:41.878Z,100209.19
2023-01-03T05:44:15.402Z,100204.88
2023-01-03T05:45:51.829Z,100203.16
2023-01-03T05:47:24.326Z,100223.19
2023-01-03T05:48:57.481Z,100193.59
2023-01-03T05:50:31.611Z,100218.13
2023-01-03T05:52:05.243Z,100215.53
2023-01-03T05:53:38.563Z,100212.03
2023-01-03T05:55:12.588Z,100219.88
2023-01-03T05:56:47.628Z,100217.28
2023-01-03T05:58:21.018Z,100220.75
2023-01-03T05:59:54.120Z,100219.94
2023-01-03T06:01:28.624Z,100221.72
2023-01-03T06:03:02.206Z,100219.09
2023-01-03T06:04:35.517Z,100220.84
2023-01-03T06:06:09.845Z,100224.41
2023-01-03T06:07:42.913Z,100227.13
2023-01-03T06:09:16.192Z,100230.66
2023-01-03T06:10:49.677Z,100227.16
2023-01-03T06:12:24.400Z,100226.34
2023-01-03T06:13:57.533Z,100230.75
2023-01-03T06:15:31.313Z,100224.66
2023-01-03T06:17:22.104Z,100235.09
2023-01-03T06:18:59.069Z,100240.34
2023-01-03T06:20:32.408Z,100217.59
2023-01-03T06:22:10.538Z,100237.09
2023-01-03T06:23:47.722Z,100235.50
2023-01-03T06:25:19.830Z,100236.44
2023-01-03T06:26:52.992Z,100235.66
2023-01-03T14:32:50.861Z,99943.78
2023-01-03T14:34:31.250Z,99945.97
2023-01-03T14:36:06.530Z,99943.78
2023-01-03T14:37:47.927Z,99938.81
2023-01-03T14:39:23.923Z,99947.84
2023-01-03T14:40:58.204Z,99947.38
2023-01-03T14:42:31.967Z,99952.06
2023-01-03T14:44:08.150Z,99951.09
2023-01-03T14:45:42.822Z,99953.72
2023-01-03T14:47:18.717Z,99956.72
2023-01-03T14:48:59.460Z,99955.28
2023-01-03T14:50:36.018Z,99955.53
2023-01-03T14:52:15.993Z,99961.22
2023-01-03T14:53:49.570Z,99956.03
2023-01-03T14:55:27.338Z,99958.06
2023-01-03T14:57:01.868Z,99961.25
2023-01-03T14:58:39.996Z,99961.47
2023-01-03T15:02:42.172Z,99969.88
2023-01-03T15:04:19.422Z,99961.13
2023-01-03T15:05:55.645Z,99962.13
2023-01-03T15:07:33.265Z,99963.28
2023-01-03T15:09:22.716Z,99963.56
2023-01-03T15:11:00.168Z,99963.88
2023-01-03T15:12:36.219Z,99966.09
2023-01-03T15:14:14.433Z,99959.47
2023-01-03T15:15:54.654Z,99961.72
2023-01-03T15:17:28.997Z,99970.06
2023-01-03T15:19:08.797Z,99973.06
2023-01-03T15:20:46.301Z,99971.59
2023-01-03T15:22:23.057Z,99974.41
2023-01-03T15:23:57.682Z,99971.72
2023-01-03T15:25:35.871Z,99975.59
2023-01-03T15:27:48.870Z,99974.25
2023-01-03T15:29:23.961Z,99976.50
2023-01-03T15:31:01.706Z,99971.22
2023-01-03T15:32:46.752Z,99976.03
2023-01-03T15:34:22.968Z,99970.09
2023-01-03T15:35:58.623Z,99973.81
2023-01-03T15:37:31.889Z,99979.25
2023-01-03T15:39:09.927Z,99980.44
2023-01-03T15:40:44.734Z,99986.81
2023-01-03T15:42:48.999Z,99988.81
2023-01-03T15:44:29.296Z,99981.22
2023-01-03T15:46:05.597Z,99985.81
2023-01-03T15:47:39.116Z,99990.34
2023-01-03T15:49:16.170Z,99991.34
2023-01-03T15:50:51.786Z,99994.13
2023-01-03T15:52:27.672Z,100000.75
2023-01-03T15:54:00.859Z,99997.38
2023-01-03T15:55:33.165Z,100008.16
2023-01-03T15:57:16.003Z,100011.84
2023-01-03T15:58:51.454Z,99997.97
2023-01-03T16:00:26.394Z,100008.75
2023-01-03T16:01:59.824Z,100007.09
2023-01-03T16:03:34.708Z,100009.91
2023-01-03T16:05:12.961Z,100007.47
2023-01-03T16:06:52.314Z,100017.50
2023-01-03T16:08:30.626Z,100014.31
2023-01-03T16:10:03.801Z,100020.78
2023-01-03T16:11:38.150Z,100010.31
2023-01-03T16:13:14.981Z,100018.72
2023-01-03T16:14:50.789Z,100028.75
2023-01-03T16:16:28.149Z,100020.22
2023-01-03T16:18:01.999Z,100017.94
2023-01-03T16:19:35.661Z,100028.63
2023-01-03T16:21:09.338Z,100029.66
2023-01-03T16:22:55.473Z,100035.19
2023-01-03T16:24:35.273Z,100031.00
2023-01-03T16:26:12.054Z,100043.63
2023-01-03T16:27:45.720Z,100035.91
2023-01-03T16:29:19.037Z,100043.25
2023-01-03T16:31:00.306Z,100046.97
2023-01-03T16:32:34.676Z,100045.47
2023-01-03T16:34:15.871Z,100043.91
2023-01-03T16:35:49.386Z,100052.97
2023-01-03T16:37:23.200Z,100062.03
2023-01-03T16:38:56.728Z,100060.69
2023-01-03T16:40:34.834Z,100063.63
2023-01-03T16:42:13.964Z,100062.97
2023-01-03T16:43:48.161Z,100068.53
2023-01-03T16:45:21.926Z,100070.53
2023-01-03T16:46:55.322Z,100074.28
2023-01-03T16:48:38.133Z,100072.63
2023-01-03T16:50:17.680Z,100076.25
2023-01-03T16:51:57.302Z,100072.84
2023-01-03T16:53:36.820Z,100078.41
2023-01-03T16:55:17.315Z,100073.41
2023-01-03T16:56:52.430Z,100078.97
2023-01-03T16:58:26.111Z,100082.59
2023-01-03T16:59:59.437Z,100082.78
2023-01-03T17:01:33.391Z,100082.94
2023-01-03T17:03:07.381Z,100081.28
2023-01-03T17:04:40.703Z,100090.16
2023-01-03T17:06:35.048Z,100097.44
2023-01-03T17:08:18.463Z,100094.94
2023-01-03T17:09:53.268Z,100095.84
2023-01-03T17:11:27.646Z,100097.75
2023-01-03T17:13:10.134Z,100100.50
2023-01-03T17:15:11.479Z,100103.25
2023-01-03T17:16:45.582Z,100105.19
2023-01-03T17:18:20.916Z,100094.84
2023-01-03T17:20:09.999Z,100098.53
2023-01-03T17:21:51.070Z,100099.56
2023-01-03T17:23:25.602Z,100089.06
2023-01-03T17:25:01.800Z,100103.25
2023-01-03T17:26:37.073Z,100107.78
2023-01-03T17:28:12.181Z,100106.06
2023-01-03T17:29:45.989Z,100107.94
2023-01-03T17:31:24.542Z,100109.78
2023-01-03T17:32:58.296Z,100109.88
2023-01-03T17:34:33.596Z,100108.13
2023-01-03T17:36:12.365Z,100110.78
2023-01-03T17:38:23.357Z,100097.78
2023-01-03T17:39:40.988Z,100115.38
2023-01-03T17:41:18.905Z,100113.69
2023-01-03T17:42:55.079Z,100110.22
2023-01-03T17:44:29.897Z,100104.97
2023-01-03T17:46:24.002Z,100107.69
2023-01-03T17:48:15.121Z,100115.63
2023-01-03T17:49:48.489Z,100106.16
2023-01-03T17:51:23.128Z,100116.78
2023-01-03T17:52:56.982Z,100107.28
2023-01-03T17:54:32.984Z,100113.66
2023-01-03T17:56:06.921Z,100124.31
2023-01-03T17:57:41.303Z,100118.31
2023-01-03T17:59:15.075Z,100122.00
2023-01-03T18:00:50.201Z,100129.13
2023-01-03T18:02:26.115Z,100123.06
2023-01-03T18:03:59.822Z,100124.16
2023-01-03T18:05:33.292Z,100130.34
2023-01-03T18:07:06.986Z,100131.34
2023-01-03T18:08:42.316Z,100121.88
2023-01-03T18:10:17.769Z,100133.19
2023-01-03T18:11:51.284Z,100128.91
2023-01-03T18:13:27.845Z,100131.66
2023-01-03T18:15:01.265Z,100127.38
2023-01-03T18:16:36.309Z,100128.22
2023-01-03T18:18:15.906Z,100129.16
2023-01-03T18:19:49.509Z,100119.78
2023-01-03T18:21:25.524Z,100134.66
2023-01-03T18:22:59.861Z,100142.69
2023-01-03T18:24:33.245Z,100137.47
2023-01-03T18:26:09.886Z,100146.25
2023-01-03T18:27:50.533Z,100139.31
2023-01-03T18:29:24.325Z,100139.34
2023-01-03T18:31:01.550Z,100140.31
2023-01-03T18:32:36.870Z,100145.59
2023-01-03T18:34:11.505Z,100142.19
2023-01-03T18:35:49.414Z,100147.50
2023-01-03T18:37:31.168Z,100144.88
2023-01-03T18:39:08.594Z,100146.63
2023-01-03T18:40:43.162Z,100144.00
2023-01-03T18:42:34.073Z,100132.72
2023-01-03T18:44:08.018Z,100151.94
2023-01-03T18:45:44.089Z,100144.09
2023-01-03T18:47:17.979Z,100145.88
2023-01-03T18:48:53.282Z,100140.66
2023-01-03T18:50:31.203Z,100148.53
2023-01-03T18:52:05.342Z,100148.53
2023-01-03T18:53:42.304Z,100151.16
2023-01-03T18:55:21.843Z,100146.78
2023-01-03T18:56:57.297Z,100146.91
2023-01-03T18:58:38.951Z,100155.75
2023-01-03T19:00:18.999Z,100157.47
2023-01-03T19:01:53.552Z,100156.59
2023-01-03T19:03:32.169Z,100151.34
2023-01-03T19:05:07.844Z,100151.41
2023-01-03T19:06:45.799Z,100154.09
2023-01-03T19:08:24.018Z,100156.84
2023-01-03T19:09:58.658Z,100147.22
2023-01-03T19:11:37.177Z,100147.34
2023-01-03T19:13:26.149Z,100149.25
2023-01-03T19:14:59.833Z,100154.63
2023-01-03T19:16:37.013Z,100155.44
2023-01-03T19:18:11.694Z,100165.09
2023-01-03T19:19:45.531Z,100156.31
2023-01-03T19:21:22.588Z,100158.06
2023-01-03T19:22:57.749Z,100156.38
2023-01-03T19:24:39.194Z,100154.72
2023-01-03T19:26:26.853Z,100151.25
2023-01-03T19:28:03.447Z,100158.22
2023-01-03T19:29:39.172Z,100146.00
2023-01-03T19:31:13.401Z,100165.28
2023-01-03T19:32:51.781Z,100162.69
2023-01-03T19:34:26.923Z,100166.22
2023-01-03T19:36:00.407Z,100160.97
2023-01-03T19:37:35.202Z,100160.97
2023-01-03T19:39:09.648Z,100165.41
2023-01-03T19:40:45.442Z,100170.69
2023-01-03T19:42:39.688Z,100168.03
2023-01-03T19:44:13.445Z,100175.06
2023-01-03T19:45:47.435Z,100182.06
2023-01-03T19:47:21.305Z,100175.06
2023-01-03T19:48:54.515Z,100178.59
2023-01-03T19:50:30.873Z,100172.53
2023-01-03T19:52:04.457Z,100178.69
2023-01-03T19:53:39.495Z,100177.81
2023-01-03T19:55:13.154Z,100183.13
2023-01-03T19:56:48.609Z,100194.59
2023-01-03T19:58:25.915Z,100185.00
2023-01-03T20:00:03.883Z,100185.94
2023-01-03T20:02:22.369Z,100197.31
2023-01-03T20:03:39.764Z,100186.00
2023-01-03T20:05:18.717Z,100188.69
2023-01-03T20:06:52.815Z,100197.41
2023-01-03T20:08:26.308Z,100192.16
2023-01-03T20:10:01.302Z,100186.09
2023-01-03T20:11:35.043Z,100193.97
2023-01-03T20:13:08.597Z,100190.44
2023-01-03T20:14:44.169Z,100197.47
2023-01-03T20:16:19.015Z,100193.97
2023-01-03T20:17:54.172Z,100196.59
2023-01-03T20:19:27.904Z,100190.50
2023-01-03T20:21:05.469Z,100195.75
2023-01-03T20:23:04.611Z,100194.00
2023-01-03T20:24:56.671Z,100193.16
2023-01-03T20:26:36.793Z,100194.03
2023-01-03T20:28:18.382Z,100201.88
2023-01-03T20:29:54.809Z,100194.03
2023-01-03T20:31:31.665Z,100194.88
2023-01-03T20:33:05.721Z,100194.88
2023-01-03T20:34:39.317Z,100193.16
2023-01-03T20:36:22.715Z,100194.88
2023-01-03T20:37:59.431Z,100201.03
2023-01-03T20:39:36.853Z,100204.53
2023-01-03T20:41:13.517Z,100201.03
2023-01-03T20:42:48.905Z,100195.84
2023-01-03T20:44:22.097Z,100201.06
2023-01-03T20:45:58.517Z,100202.81
2023-01-03T20:47:31.849Z,100201.13
2023-01-03T20:49:06.531Z,100197.63
2023-01-03T20:50:39.911Z,100202.03
2023-01-03T20:52:16.624Z,100202.03
2023-01-03T20:53:54.716Z,100197.66
2023-01-03T20:55:29.982Z,100206.41
2023-01-03T20:57:03.167Z,100199.41
2023-01-03T20:58:38.013Z,100202.91
2023-01-03T21:00:25.266Z,100206.41
2023-01-03T21:01:58.746Z,100208.16
2023-01-03T21:03:32.158Z,100209.94
2023-01-03T21:05:06.183Z,100220.44
2023-01-03T21:06:41.754Z,100215.16
2023-01-03T21:08:35.296Z,100215.19
2023-01-03T21:10:20.180Z,100226.53
2023-01-03T21:11:53.392Z,100225.63
2023-01-03T21:13:26.553Z,100216.88
2023-01-03T21:15:01.119Z,100210.78
2023-01-03T21:16:36.727Z,100228.25
2023-01-03T21:18:11.352Z,100219.50
2023-01-03T21:19:44.521Z,100230.88
2023-01-03T21:21:20.409Z,100227.38
2023-01-03T21:22:53.863Z,100233.50
2023-01-03T21:24:27.078Z,100230.88
2023-01-03T21:25:59.203Z,100234.41
2023-01-03T21:27:32.260Z,100231.78
2023-01-03T21:29:06.030Z,100216.06
2023-01-03T21:30:41.856Z,100223.03
2023-01-03T21:32:14.983Z,100224.81
2023-01-03T21:33:48.430Z,100223.91
2023-01-03T21:35:23.713Z,100218.69
2023-01-03T21:36:57.465Z,100228.31
2023-01-03T21:38:30.610Z,100227.44
2023-01-03T21:40:04.013Z,100230.94
2023-01-03T21:41:57.847Z,100223.91
2023-01-03T21:43:30.119Z,100220.44
2023-01-03T21:45:03.389Z,100227.44
2023-01-03T21:46:37.921Z,100225.69
2023-01-03T21:48:12.512Z,100218.69
2023-01-03T21:49:45.799Z,100227.41
2023-01-03T21:51:33.091Z,100227.41
2023-01-03T21:53:06.825Z,100230.03
2023-01-03T21:54:39.909Z,100227.41
2023-01-03T21:56:20.664Z,100214.34
2023-01-03T21:57:53.887Z,100222.16
2023-01-03T21:59:27.262Z,100223.94
2023-01-03T22:01:10.668Z,100223.94
2023-01-03T22:03:03.724Z,100211.69
2023-01-03T22:04:36.361Z,100210.84
2023-01-03T22:06:11.550Z,100221.31
2023-01-03T22:07:44.672Z,100213.44
2023-01-03T22:09:31.790Z,100202.94
2023-01-03T22:11:05.723Z,100202.97
2023-01-03T22:12:38.866Z,100211.66
2023-01-03T22:14:12.043Z,100208.19
2023-01-03T22:15:45.388Z,100206.41
2023-01-03T22:17:18.824Z,100213.41
2023-01-03T22:18:53.873Z,100211.69
2023-01-03T22:20:30.939Z,100208.16
2023-01-03T22:22:08.183Z,100208.16
2023-01-03T22:23:41.755Z,100209.03
2023-01-03T22:25:16.799Z,100212.53
2023-01-03T22:26:49.925Z,100206.41
2023-01-03T22:28:25.470Z,100205.56
2023-01-03T22:29:58.786Z,100209.88
2023-01-03T22:31:32.014Z,100208.13
2023-01-03T22:33:05.227Z,100202.00
2023-01-03T22:34:40.658Z,100213.34
2023-01-03T22:36:15.080Z,100210.69
2023-01-03T22:37:48.296Z,100215.06
2023-01-03T22:39:21.446Z,100209.81
2023-01-03T22:40:54.798Z,100216.78
2023-01-03T22:42:28.072Z,100216.75
2023-01-03T22:44:00.242Z,100225.50
2023-01-03T22:45:33.361Z,100221.09
2023-01-03T22:47:06.816Z,100223.72
2023-01-03T22:48:40.223Z,100217.63
2023-01-03T22:50:14.879Z,100221.97
2023-01-03T22:51:48.067Z,100227.19
2023-01-03T22:53:21.353Z,100230.69
2023-01-03T22:54:54.851Z,100227.19
2023-01-03T22:56:28.070Z,100235.03
2023-01-03T22:58:01.357Z,100228.97
2023-01-03T22:59:34.708Z,100230.69
2023-01-03T23:01:08.897Z,100235.91
2023-01-03T23:02:42.544Z,100236.81
2023-01-03T23:04:14.852Z,100242.03
2023-01-03T23:05:49.540Z,100242.03
2023-01-03T23:07:22.837Z,100238.53
2023-01-03T23:08:56.531Z,100239.34
2023-01-03T23:10:30.204Z,100248.97
2023-01-03T23:12:20.509Z,100228.88
2023-01-03T23:13:52.686Z,100244.53
2023-01-03T23:15:26.135Z,100234.03
2023-01-03T23:17:19.804Z,100234.88
2023-01-03T23:18:52.088Z,100232.19
2023-01-03T23:20:27.733Z,100232.13
2023-01-03T23:22:02.380Z,100226.00
2023-01-03T23:23:35.509Z,100233.84
2023-01-03T23:25:09.329Z,100237.28
2023-01-03T23:26:42.895Z,100242.50
2023-01-03T23:28:16.465Z,100239.06
2023-01-03T23:29:49.558Z,100232.13
2023-01-03T23:31:23.122Z,100233.88
2023-01-03T23:32:56.997Z,100233.88
2023-01-03T23:34:29.283Z,100240.00
2023-01-03T23:36:05.647Z,100238.25
2023-01-03T23:37:40.480Z,100234.78
2023-01-03T23:39:14.226Z,100234.78
2023-01-03T23:40:47.429Z,100243.56
2023-01-03T23:42:20.885Z,100239.19
2023-01-03T23:43:55.212Z,100237.47
2023-01-03T23:45:28.409Z,100238.31
2023-01-03T23:47:06.231Z,100239.22
2023-01-03T23:48:42.648Z,100242.72
2023-01-03T23:50:15.981Z,100248.78
2023-01-03T23:51:49.159Z,100253.16
2023-01-03T23:53:23.691Z,100252.25
2023-01-03T23:55:01.626Z,100246.13
2023-01-03T23:56:38.808Z,100265.25
2023-01-03T23:58:12.072Z,100250.44
2023-01-03T23:59:45.348Z,100249.53
